sensor_id;sensor_type;location;lat;lon;timestamp;temperature;humidity
12885;DHT22;6510;51.362;7.370;2023-07-28T00:02:13;16.00;99.90
12885;DHT22;6510;51.362;7.370;2023-07-28T00:04:38;16.00;99.90
12885;DHT22;6510;51.362;7.370;2023-07-28T00:07:04;16.00;99.90
12885;DHT22;6510;51.362;7.370;2023-07-28T00:09:30;16.00;99.90
12885;DHT22;6510;51.362;7.370;2023-07-28T00:12:00;16.00;99.90
12885;DHT22;6510;51.362;7.370;2023-07-28T00:14:26;16.00;99.90
12885;DHT22;6510;51.362;7.370;2023-07-28T00:16:53;16.00;99.90
12885;DHT22;6510;51.362;7.370;2023-07-28T00:19:19;16.00;99.90
12885;DHT22;6510;51.362;7.370;2023-07-28T00:21:49;16.00;99.90
12885;DHT22;6510;51.362;7.370;2023-07-28T00:24:15;16.00;99.90
12885;DHT22;6510;51.362;7.370;2023-07-28T00:26:41;16.00;99.90
12885;DHT22;6510;51.362;7.370;2023-07-28T00:29:08;16.00;99.90
12885;DHT22;6510;51.362;7.370;2023-07-28T00:31:34;16.00;99.90
12885;DHT22;6510;51.362;7.370;2023-07-28T00:34:01;16.00;99.90
12885;DHT22;6510;51.362;7.370;2023-07-28T00:36:26;16.00;99.90
12885;DHT22;6510;51.362;7.370;2023-07-28T00:38:52;16.00;99.90
12885;DHT22;6510;51.362;7.370;2023-07-28T00:41:18;16.00;99.90
12885;DHT22;6510;51.362;7.370;2023-07-28T00:43:43;16.00;99.90
12885;DHT22;6510;51.362;7.370;2023-07-28T00:46:10;16.00;99.90
12885;DHT22;6510;51.362;7.370;2023-07-28T00:48:36;16.00;99.90
12885;DHT22;6510;51.362;7.370;2023-07-28T00:51:02;16.00;99.90
12885;DHT22;6510;51.362;7.370;2023-07-28T00:53:29;16.00;99.90
12885;DHT22;6510;51.362;7.370;2023-07-28T00:55:55;16.00;99.90
12885;DHT22;6510;51.362;7.370;2023-07-28T00:58:21;16.00;99.90
12885;DHT22;6510;51.362;7.370;2023-07-28T01:00:47;16.00;99.90
12885;DHT22;6510;51.362;7.370;2023-07-28T01:03:14;16.00;99.90
12885;DHT22;6510;51.362;7.370;2023-07-28T01:10:48;16.00;99.90
12885;DHT22;6510;51.362;7.370;2023-07-28T01:13:14;16.00;99.90
12885;DHT22;6510;51.362;7.370;2023-07-28T01:15:39;16.00;99.90
12885;DHT22;6510;51.362;7.370;2023-07-28T01:18:05;16.00;99.90
12885;DHT22;6510;51.362;7.370;2023-07-28T01:20:33;16.00;99.90
12885;DHT22;6510;51.362;7.370;2023-07-28T01:23:18;16.00;99.90
12885;DHT22;6510;51.362;7.370;2023-07-28T01:26:08;16.00;99.90
12885;DHT22;6510;51.362;7.370;2023-07-28T01:28:35;16.00;99.90
12885;DHT22;6510;51.362;7.370;2023-07-28T01:31:05;16.00;99.90
12885;DHT22;6510;51.362;7.370;2023-07-28T01:33:31;16.00;99.90
12885;DHT22;6510;51.362;7.370;2023-07-28T01:35:57;16.10;99.90
12885;DHT22;6510;51.362;7.370;2023-07-28T01:38:25;16.10;99.90
12885;DHT22;6510;51.362;7.370;2023-07-28T01:40:51;16.10;99.90
12885;DHT22;6510;51.362;7.370;2023-07-28T01:43:16;16.00;99.90
12885;DHT22;6510;51.362;7.370;2023-07-28T01:45:42;16.10;99.90
12885;DHT22;6510;51.362;7.370;2023-07-28T01:48:08;16.10;99.90
12885;DHT22;6510;51.362;7.370;2023-07-28T01:50:37;16.10;99.90
12885;DHT22;6510;51.362;7.370;2023-07-28T01:53:04;16.10;99.90
12885;DHT22;6510;51.362;7.370;2023-07-28T01:55:30;16.10;99.90
12885;DHT22;6510;51.362;7.370;2023-07-28T01:57:57;16.10;99.90
12885;DHT22;6510;51.362;7.370;2023-07-28T02:00:23;16.00;99.90
12885;DHT22;6510;51.362;7.370;2023-07-28T02:02:49;16.00;99.90
12885;DHT22;6510;51.362;7.370;2023-07-28T02:05:15;16.10;99.90
12885;DHT22;6510;51.362;7.370;2023-07-28T02:07:41;16.10;99.90
12885;DHT22;6510;51.362;7.370;2023-07-28T02:10:07;16.00;99.90
12885;DHT22;6510;51.362;7.370;2023-07-28T02:12:33;16.10;99.90
12885;DHT22;6510;51.362;7.370;2023-07-28T02:14:59;16.10;99.90
12885;DHT22;6510;51.362;7.370;2023-07-28T02:17:25;16.10;99.90
12885;DHT22;6510;51.362;7.370;2023-07-28T02:19:51;16.10;99.90
12885;DHT22;6510;51.362;7.370;2023-07-28T02:22:16;16.10;99.90
12885;DHT22;6510;51.362;7.370;2023-07-28T02:24:42;16.10;99.90
12885;DHT22;6510;51.362;7.370;2023-07-28T02:27:08;16.10;99.90
12885;DHT22;6510;51.362;7.370;2023-07-28T02:29:33;16.10;99.90
12885;DHT22;6510;51.362;7.370;2023-07-28T02:31:59;16.10;99.90
12885;DHT22;6510;51.362;7.370;2023-07-28T02:34:24;16.10;99.90
12885;DHT22;6510;51.362;7.370;2023-07-28T02:36:50;16.10;99.90
12885;DHT22;6510;51.362;7.370;2023-07-28T02:39:15;16.10;99.90
12885;DHT22;6510;51.362;7.370;2023-07-28T02:41:42;16.10;99.90
12885;DHT22;6510;51.362;7.370;2023-07-28T02:44:07;16.10;99.90
12885;DHT22;6510;51.362;7.370;2023-07-28T02:46:33;16.10;99.90
12885;DHT22;6510;51.362;7.370;2023-07-28T02:48:58;16.20;99.90
12885;DHT22;6510;51.362;7.370;2023-07-28T02:51:24;16.10;99.90
12885;DHT22;6510;51.362;7.370;2023-07-28T02:53:50;16.20;99.90
12885;DHT22;6510;51.362;7.370;2023-07-28T02:56:15;16.10;99.90
12885;DHT22;6510;51.362;7.370;2023-07-28T02:58:41;16.10;99.90
12885;DHT22;6510;51.362;7.370;2023-07-28T03:01:06;16.10;99.90
12885;DHT22;6510;51.362;7.370;2023-07-28T03:03:32;16.20;99.90
12885;DHT22;6510;51.362;7.370;2023-07-28T03:05:58;16.20;99.90
12885;DHT22;6510;51.362;7.370;2023-07-28T03:08:23;16.20;99.90
12885;DHT22;6510;51.362;7.370;2023-07-28T03:10:49;16.20;99.90
12885;DHT22;6510;51.362;7.370;2023-07-28T03:13:14;16.20;99.90
12885;DHT22;6510;51.362;7.370;2023-07-28T03:15:40;16.20;99.90
12885;DHT22;6510;51.362;7.370;2023-07-28T03:18:05;16.20;99.90
12885;DHT22;6510;51.362;7.370;2023-07-28T03:20:31;16.20;99.90
12885;DHT22;6510;51.362;7.370;2023-07-28T03:22:59;16.20;99.90
12885;DHT22;6510;51.362;7.370;2023-07-28T03:25:25;16.20;99.90
12885;DHT22;6510;51.362;7.370;2023-07-28T03:27:50;16.20;99.90
12885;DHT22;6510;51.362;7.370;2023-07-28T03:30:18;16.20;99.90
12885;DHT22;6510;51.362;7.370;2023-07-28T03:32:43;16.20;99.90
12885;DHT22;6510;51.362;7.370;2023-07-28T03:35:09;16.20;99.90
12885;DHT22;6510;51.362;7.370;2023-07-28T03:37:34;16.20;99.90
12885;DHT22;6510;51.362;7.370;2023-07-28T03:40:00;16.20;99.90
12885;DHT22;6510;51.362;7.370;2023-07-28T03:42:27;16.20;99.90
12885;DHT22;6510;51.362;7.370;2023-07-28T03:44:52;16.20;99.90
12885;DHT22;6510;51.362;7.370;2023-07-28T03:47:19;16.20;99.90
12885;DHT22;6510;51.362;7.370;2023-07-28T03:49:44;16.30;99.90
12885;DHT22;6510;51.362;7.370;2023-07-28T03:52:10;16.30;99.90
12885;DHT22;6510;51.362;7.370;2023-07-28T03:54:35;16.20;99.90
12885;DHT22;6510;51.362;7.370;2023-07-28T03:57:01;16.30;99.90
12885;DHT22;6510;51.362;7.370;2023-07-28T03:59:27;16.30;99.90
12885;DHT22;6510;51.362;7.370;2023-07-28T04:01:52;16.30;99.90
12885;DHT22;6510;51.362;7.370;2023-07-28T04:04:20;16.30;99.90
12885;DHT22;6510;51.362;7.370;2023-07-28T04:06:47;16.30;99.90
12885;DHT22;6510;51.362;7.370;2023-07-28T04:09:16;16.30;99.90
12885;DHT22;6510;51.362;7.370;2023-07-28T04:11:41;16.30;99.90
12885;DHT22;6510;51.362;7.370;2023-07-28T04:14:07;16.30;99.90
12885;DHT22;6510;51.362;7.370;2023-07-28T04:16:33;16.30;99.90
12885;DHT22;6510;51.362;7.370;2023-07-28T04:18:59;16.30;99.90
12885;DHT22;6510;51.362;7.370;2023-07-28T04:21:25;16.30;99.90
12885;DHT22;6510;51.362;7.370;2023-07-28T04:23:51;16.30;99.90
12885;DHT22;6510;51.362;7.370;2023-07-28T04:26:17;16.40;99.90
12885;DHT22;6510;51.362;7.370;2023-07-28T04:28:43;16.40;99.90
12885;DHT22;6510;51.362;7.370;2023-07-28T04:31:09;16.40;99.90
12885;DHT22;6510;51.362;7.370;2023-07-28T04:33:34;16.40;99.90
12885;DHT22;6510;51.362;7.370;2023-07-28T04:36:03;16.40;99.90
12885;DHT22;6510;51.362;7.370;2023-07-28T04:38:39;16.40;99.90
12885;DHT22;6510;51.362;7.370;2023-07-28T04:41:13;16.40;99.90
12885;DHT22;6510;51.362;7.370;2023-07-28T04:43:39;16.40;99.90
12885;DHT22;6510;51.362;7.370;2023-07-28T04:46:04;16.50;99.90
12885;DHT22;6510;51.362;7.370;2023-07-28T04:48:30;16.50;99.90
12885;DHT22;6510;51.362;7.370;2023-07-28T04:50:55;16.50;99.90
12885;DHT22;6510;51.362;7.370;2023-07-28T04:53:21;16.50;99.90
12885;DHT22;6510;51.362;7.370;2023-07-28T04:55:46;16.50;99.90
12885;DHT22;6510;51.362;7.370;2023-07-28T04:58:12;16.50;99.90
12885;DHT22;6510;51.362;7.370;2023-07-28T05:00:38;16.60;99.90
12885;DHT22;6510;51.362;7.370;2023-07-28T05:03:03;16.60;99.90
12885;DHT22;6510;51.362;7.370;2023-07-28T05:05:29;16.70;99.90
12885;DHT22;6510;51.362;7.370;2023-07-28T05:07:55;16.70;99.90
12885;DHT22;6510;51.362;7.370;2023-07-28T05:10:20;16.70;99.90
12885;DHT22;6510;51.362;7.370;2023-07-28T05:12:48;16.80;99.90
12885;DHT22;6510;51.362;7.370;2023-07-28T05:15:17;16.80;99.90
12885;DHT22;6510;51.362;7.370;2023-07-28T05:17:43;16.90;99.90
12885;DHT22;6510;51.362;7.370;2023-07-28T05:20:09;16.90;99.90
12885;DHT22;6510;51.362;7.370;2023-07-28T05:22:34;16.90;99.90
12885;DHT22;6510;51.362;7.370;2023-07-28T05:25:00;16.90;99.90
12885;DHT22;6510;51.362;7.370;2023-07-28T05:27:26;17.00;99.90
12885;DHT22;6510;51.362;7.370;2023-07-28T05:29:52;16.90;99.90
12885;DHT22;6510;51.362;7.370;2023-07-28T05:32:20;16.90;99.90
12885;DHT22;6510;51.362;7.370;2023-07-28T05:34:45;17.00;99.90
12885;DHT22;6510;51.362;7.370;2023-07-28T05:37:11;17.00;99.90
12885;DHT22;6510;51.362;7.370;2023-07-28T05:39:36;17.00;99.90
12885;DHT22;6510;51.362;7.370;2023-07-28T05:42:02;17.00;99.90
12885;DHT22;6510;51.362;7.370;2023-07-28T05:44:28;17.00;99.90
12885;DHT22;6510;51.362;7.370;2023-07-28T05:46:54;17.00;99.90
12885;DHT22;6510;51.362;7.370;2023-07-28T05:49:19;17.10;99.90
12885;DHT22;6510;51.362;7.370;2023-07-28T05:51:47;17.20;99.90
12885;DHT22;6510;51.362;7.370;2023-07-28T05:54:13;17.30;99.90
12885;DHT22;6510;51.362;7.370;2023-07-28T05:56:40;17.20;99.90
12885;DHT22;6510;51.362;7.370;2023-07-28T05:59:06;17.30;99.90
12885;DHT22;6510;51.362;7.370;2023-07-28T06:01:32;17.30;99.90
12885;DHT22;6510;51.362;7.370;2023-07-28T06:03:58;17.30;99.90
12885;DHT22;6510;51.362;7.370;2023-07-28T06:06:27;17.40;99.90
12885;DHT22;6510;51.362;7.370;2023-07-28T06:08:53;17.40;99.90
12885;DHT22;6510;51.362;7.370;2023-07-28T06:11:20;17.30;99.90
12885;DHT22;6510;51.362;7.370;2023-07-28T06:13:46;17.50;99.90
12885;DHT22;6510;51.362;7.370;2023-07-28T06:16:12;17.40;99.90
12885;DHT22;6510;51.362;7.370;2023-07-28T06:18:38;17.40;99.90
12885;DHT22;6510;51.362;7.370;2023-07-28T06:21:04;17.50;99.90
12885;DHT22;6510;51.362;7.370;2023-07-28T06:23:29;17.50;99.90
12885;DHT22;6510;51.362;7.370;2023-07-28T06:25:58;17.50;99.90
12885;DHT22;6510;51.362;7.370;2023-07-28T06:28:23;17.60;99.90
12885;DHT22;6510;51.362;7.370;2023-07-28T06:30:56;17.70;99.90
12885;DHT22;6510;51.362;7.370;2023-07-28T06:33:22;17.70;99.90
12885;DHT22;6510;51.362;7.370;2023-07-28T06:35:48;17.70;99.90
12885;DHT22;6510;51.362;7.370;2023-07-28T06:38:13;17.80;99.90
12885;DHT22;6510;51.362;7.370;2023-07-28T06:40:39;17.90;99.90
12885;DHT22;6510;51.362;7.370;2023-07-28T06:43:04;17.80;99.90
12885;DHT22;6510;51.362;7.370;2023-07-28T06:45:30;17.80;99.90
12885;DHT22;6510;51.362;7.370;2023-07-28T06:47:56;17.70;99.90
12885;DHT22;6510;51.362;7.370;2023-07-28T06:50:21;17.80;99.90
12885;DHT22;6510;51.362;7.370;2023-07-28T06:52:47;17.80;99.90
12885;DHT22;6510;51.362;7.370;2023-07-28T06:55:14;17.70;99.90
12885;DHT22;6510;51.362;7.370;2023-07-28T06:57:40;17.90;99.90
12885;DHT22;6510;51.362;7.370;2023-07-28T07:00:07;17.80;99.90
12885;DHT22;6510;51.362;7.370;2023-07-28T07:02:35;17.80;99.90
12885;DHT22;6510;51.362;7.370;2023-07-28T07:05:01;17.80;99.90
12885;DHT22;6510;51.362;7.370;2023-07-28T07:07:26;17.80;99.90
12885;DHT22;6510;51.362;7.370;2023-07-28T07:09:52;17.80;99.90
12885;DHT22;6510;51.362;7.370;2023-07-28T07:12:18;17.80;99.90
12885;DHT22;6510;51.362;7.370;2023-07-28T07:14:44;17.90;99.90
12885;DHT22;6510;51.362;7.370;2023-07-28T07:17:10;18.00;99.90
12885;DHT22;6510;51.362;7.370;2023-07-28T07:19:36;18.10;99.90
12885;DHT22;6510;51.362;7.370;2023-07-28T07:22:01;18.00;99.90
12885;DHT22;6510;51.362;7.370;2023-07-28T07:24:27;18.00;99.90
12885;DHT22;6510;51.362;7.370;2023-07-28T07:26:53;18.10;99.90
12885;DHT22;6510;51.362;7.370;2023-07-28T07:29:18;18.10;99.90
12885;DHT22;6510;51.362;7.370;2023-07-28T07:31:44;18.10;99.90
12885;DHT22;6510;51.362;7.370;2023-07-28T07:34:09;18.10;99.90
12885;DHT22;6510;51.362;7.370;2023-07-28T07:36:35;18.10;99.90
12885;DHT22;6510;51.362;7.370;2023-07-28T07:39:01;18.10;99.90
12885;DHT22;6510;51.362;7.370;2023-07-28T07:41:26;18.20;99.90
12885;DHT22;6510;51.362;7.370;2023-07-28T07:43:53;18.30;99.90
12885;DHT22;6510;51.362;7.370;2023-07-28T07:46:20;18.30;99.90
12885;DHT22;6510;51.362;7.370;2023-07-28T07:48:46;18.20;99.90
12885;DHT22;6510;51.362;7.370;2023-07-28T07:51:12;18.30;99.90
12885;DHT22;6510;51.362;7.370;2023-07-28T07:53:37;18.30;99.90
12885;DHT22;6510;51.362;7.370;2023-07-28T07:56:04;18.60;99.90
12885;DHT22;6510;51.362;7.370;2023-07-28T07:58:30;18.80;99.90
12885;DHT22;6510;51.362;7.370;2023-07-28T08:00:56;19.10;99.90
12885;DHT22;6510;51.362;7.370;2023-07-28T08:03:21;19.50;99.90
12885;DHT22;6510;51.362;7.370;2023-07-28T08:05:47;19.50;99.90
12885;DHT22;6510;51.362;7.370;2023-07-28T08:08:13;19.60;99.90
12885;DHT22;6510;51.362;7.370;2023-07-28T08:10:42;19.80;99.90
12885;DHT22;6510;51.362;7.370;2023-07-28T08:13:08;19.80;99.90
12885;DHT22;6510;51.362;7.370;2023-07-28T08:15:34;19.70;99.90
12885;DHT22;6510;51.362;7.370;2023-07-28T08:17:59;19.70;99.90
12885;DHT22;6510;51.362;7.370;2023-07-28T08:20:25;20.00;99.90
12885;DHT22;6510;51.362;7.370;2023-07-28T08:22:51;20.10;99.90
12885;DHT22;6510;51.362;7.370;2023-07-28T08:25:16;19.90;99.90
12885;DHT22;6510;51.362;7.370;2023-07-28T08:27:42;19.70;99.90
12885;DHT22;6510;51.362;7.370;2023-07-28T08:30:09;19.70;99.90
12885;DHT22;6510;51.362;7.370;2023-07-28T08:32:34;19.50;99.90
12885;DHT22;6510;51.362;7.370;2023-07-28T08:35:03;19.60;99.90
12885;DHT22;6510;51.362;7.370;2023-07-28T08:37:29;19.70;99.90
12885;DHT22;6510;51.362;7.370;2023-07-28T08:39:55;19.80;99.90
12885;DHT22;6510;51.362;7.370;2023-07-28T08:42:21;19.70;99.90
12885;DHT22;6510;51.362;7.370;2023-07-28T08:44:48;19.50;99.90
12885;DHT22;6510;51.362;7.370;2023-07-28T08:47:13;19.50;99.90
12885;DHT22;6510;51.362;7.370;2023-07-28T08:49:39;19.60;99.90
12885;DHT22;6510;51.362;7.370;2023-07-28T08:52:05;19.50;99.90
12885;DHT22;6510;51.362;7.370;2023-07-28T08:54:31;19.50;99.90
12885;DHT22;6510;51.362;7.370;2023-07-28T08:57:00;19.40;99.90
12885;DHT22;6510;51.362;7.370;2023-07-28T08:59:26;19.50;99.90
12885;DHT22;6510;51.362;7.370;2023-07-28T09:01:54;20.00;99.90
12885;DHT22;6510;51.362;7.370;2023-07-28T09:04:23;20.30;99.90
12885;DHT22;6510;51.362;7.370;2023-07-28T09:06:49;20.60;99.90
12885;DHT22;6510;51.362;7.370;2023-07-28T09:09:15;20.80;99.90
12885;DHT22;6510;51.362;7.370;2023-07-28T09:14:15;20.70;99.90
12885;DHT22;6510;51.362;7.370;2023-07-28T09:16:42;20.70;99.90
12885;DHT22;6510;51.362;7.370;2023-07-28T09:19:09;20.60;99.90
12885;DHT22;6510;51.362;7.370;2023-07-28T09:21:35;20.60;99.90
12885;DHT22;6510;51.362;7.370;2023-07-28T09:24:04;20.40;99.90
12885;DHT22;6510;51.362;7.370;2023-07-28T09:26:41;20.50;99.90
12885;DHT22;6510;51.362;7.370;2023-07-28T09:29:17;20.40;99.90
12885;DHT22;6510;51.362;7.370;2023-07-28T09:31:44;20.70;99.90
12885;DHT22;6510;51.362;7.370;2023-07-28T09:34:11;21.00;99.90
12885;DHT22;6510;51.362;7.370;2023-07-28T09:36:37;21.30;99.90
12885;DHT22;6510;51.362;7.370;2023-07-28T09:39:05;21.40;99.90
12885;DHT22;6510;51.362;7.370;2023-07-28T09:41:37;20.80;99.90
12885;DHT22;6510;51.362;7.370;2023-07-28T09:44:04;20.60;99.90
12885;DHT22;6510;51.362;7.370;2023-07-28T09:46:33;20.40;99.90
12885;DHT22;6510;51.362;7.370;2023-07-28T09:48:59;20.50;99.90
12885;DHT22;6510;51.362;7.370;2023-07-28T09:51:30;20.70;99.90
12885;DHT22;6510;51.362;7.370;2023-07-28T09:54:04;21.00;99.90
12885;DHT22;6510;51.362;7.370;2023-07-28T09:56:31;20.90;99.90
12885;DHT22;6510;51.362;7.370;2023-07-28T09:58:58;21.20;99.90
12885;DHT22;6510;51.362;7.370;2023-07-28T10:01:25;21.30;99.90
12885;DHT22;6510;51.362;7.370;2023-07-28T10:03:52;21.50;99.90
12885;DHT22;6510;51.362;7.370;2023-07-28T10:06:18;21.60;99.90
12885;DHT22;6510;51.362;7.370;2023-07-28T10:08:45;21.30;99.90
12885;DHT22;6510;51.362;7.370;2023-07-28T10:11:15;20.80;99.90
12885;DHT22;6510;51.362;7.370;2023-07-28T10:13:43;20.90;99.90
12885;DHT22;6510;51.362;7.370;2023-07-28T10:16:09;21.20;99.90
12885;DHT22;6510;51.362;7.370;2023-07-28T10:18:36;21.90;99.90
12885;DHT22;6510;51.362;7.370;2023-07-28T10:21:09;22.20;99.90
12885;DHT22;6510;51.362;7.370;2023-07-28T10:23:39;21.60;99.90
12885;DHT22;6510;51.362;7.370;2023-07-28T10:26:05;21.30;99.90
12885;DHT22;6510;51.362;7.370;2023-07-28T10:28:32;20.70;99.90
12885;DHT22;6510;51.362;7.370;2023-07-28T10:31:00;20.40;99.90
12885;DHT22;6510;51.362;7.370;2023-07-28T10:33:45;19.80;99.90
12885;DHT22;6510;51.362;7.370;2023-07-28T10:36:18;19.60;99.90
12885;DHT22;6510;51.362;7.370;2023-07-28T10:38:43;19.60;99.90
12885;DHT22;6510;51.362;7.370;2023-07-28T10:41:15;20.00;99.90
12885;DHT22;6510;51.362;7.370;2023-07-28T10:43:41;20.90;99.90
12885;DHT22;6510;51.362;7.370;2023-07-28T10:46:09;21.10;99.90
12885;DHT22;6510;51.362;7.370;2023-07-28T10:48:36;21.20;99.90
12885;DHT22;6510;51.362;7.370;2023-07-28T10:51:03;21.10;99.90
12885;DHT22;6510;51.362;7.370;2023-07-28T10:53:28;20.80;99.90
12885;DHT22;6510;51.362;7.370;2023-07-28T10:55:54;20.90;99.90
12885;DHT22;6510;51.362;7.370;2023-07-28T10:58:20;21.20;99.90
12885;DHT22;6510;51.362;7.370;2023-07-28T11:00:45;21.20;99.90
12885;DHT22;6510;51.362;7.370;2023-07-28T11:03:12;21.10;99.90
12885;DHT22;6510;51.362;7.370;2023-07-28T11:05:38;21.00;99.90
12885;DHT22;6510;51.362;7.370;2023-07-28T11:08:06;21.10;99.90
12885;DHT22;6510;51.362;7.370;2023-07-28T11:10:33;21.80;99.90
12885;DHT22;6510;51.362;7.370;2023-07-28T11:13:06;23.60;99.90
12885;DHT22;6510;51.362;7.370;2023-07-28T11:15:32;26.00;99.90
12885;DHT22;6510;51.362;7.370;2023-07-28T11:17:58;26.90;99.90
12885;DHT22;6510;51.362;7.370;2023-07-28T11:20:27;26.80;99.90
12885;DHT22;6510;51.362;7.370;2023-07-28T11:23:03;27.20;99.90
12885;DHT22;6510;51.362;7.370;2023-07-28T11:25:31;27.10;99.90
12885;DHT22;6510;51.362;7.370;2023-07-28T11:27:57;27.60;99.90
12885;DHT22;6510;51.362;7.370;2023-07-28T11:30:23;26.20;99.90
12885;DHT22;6510;51.362;7.370;2023-07-28T11:32:53;24.30;99.90
12885;DHT22;6510;51.362;7.370;2023-07-28T11:35:20;23.70;99.90
12885;DHT22;6510;51.362;7.370;2023-07-28T11:37:49;23.90;99.90
12885;DHT22;6510;51.362;7.370;2023-07-28T11:40:18;23.80;99.90
12885;DHT22;6510;51.362;7.370;2023-07-28T11:42:47;23.90;99.90
12885;DHT22;6510;51.362;7.370;2023-07-28T11:45:15;24.30;99.90
12885;DHT22;6510;51.362;7.370;2023-07-28T11:48:05;23.50;99.90
12885;DHT22;6510;51.362;7.370;2023-07-28T11:50:37;23.20;99.90
12885;DHT22;6510;51.362;7.370;2023-07-28T11:53:03;23.40;99.90
12885;DHT22;6510;51.362;7.370;2023-07-28T11:55:32;23.40;99.90
12885;DHT22;6510;51.362;7.370;2023-07-28T11:57:58;24.20;99.90
12885;DHT22;6510;51.362;7.370;2023-07-28T12:00:35;24.40;99.90
12885;DHT22;6510;51.362;7.370;2023-07-28T12:03:05;24.60;99.90
12885;DHT22;6510;51.362;7.370;2023-07-28T12:05:32;25.80;99.90
12885;DHT22;6510;51.362;7.370;2023-07-28T12:07:58;25.20;99.90
12885;DHT22;6510;51.362;7.370;2023-07-28T12:10:24;24.80;99.90
12885;DHT22;6510;51.362;7.370;2023-07-28T12:12:50;25.30;99.90
12885;DHT22;6510;51.362;7.370;2023-07-28T12:15:24;24.70;99.90
12885;DHT22;6510;51.362;7.370;2023-07-28T12:18:05;24.90;99.90
12885;DHT22;6510;51.362;7.370;2023-07-28T12:20:39;25.70;99.90
12885;DHT22;6510;51.362;7.370;2023-07-28T12:23:06;25.20;99.90
12885;DHT22;6510;51.362;7.370;2023-07-28T12:25:32;26.50;99.90
12885;DHT22;6510;51.362;7.370;2023-07-28T12:27:59;28.80;99.90
12885;DHT22;6510;51.362;7.370;2023-07-28T12:30:24;30.20;99.90
12885;DHT22;6510;51.362;7.370;2023-07-28T12:32:50;30.30;99.90
12885;DHT22;6510;51.362;7.370;2023-07-28T12:35:18;31.10;99.90
12885;DHT22;6510;51.362;7.370;2023-07-28T12:37:44;29.80;99.90
12885;DHT22;6510;51.362;7.370;2023-07-28T12:40:10;29.70;99.90
12885;DHT22;6510;51.362;7.370;2023-07-28T12:42:36;28.60;99.90
12885;DHT22;6510;51.362;7.370;2023-07-28T12:45:01;28.00;99.90
12885;DHT22;6510;51.362;7.370;2023-07-28T12:47:27;27.00;99.90
12885;DHT22;6510;51.362;7.370;2023-07-28T12:49:52;25.30;99.90
12885;DHT22;6510;51.362;7.370;2023-07-28T12:52:18;24.10;99.90
12885;DHT22;6510;51.362;7.370;2023-07-28T12:54:45;22.70;99.90
12885;DHT22;6510;51.362;7.370;2023-07-28T12:57:14;21.70;99.90
12885;DHT22;6510;51.362;7.370;2023-07-28T12:59:40;21.50;99.90
12885;DHT22;6510;51.362;7.370;2023-07-28T13:02:06;22.30;99.90
12885;DHT22;6510;51.362;7.370;2023-07-28T13:04:31;22.30;99.90
12885;DHT22;6510;51.362;7.370;2023-07-28T13:06:57;22.40;99.90
12885;DHT22;6510;51.362;7.370;2023-07-28T13:09:22;22.50;99.90
12885;DHT22;6510;51.362;7.370;2023-07-28T13:11:48;23.60;99.90
12885;DHT22;6510;51.362;7.370;2023-07-28T13:14:14;25.00;99.90
12885;DHT22;6510;51.362;7.370;2023-07-28T13:16:39;25.90;99.90
12885;DHT22;6510;51.362;7.370;2023-07-28T13:19:05;26.80;99.90
12885;DHT22;6510;51.362;7.370;2023-07-28T13:21:31;26.20;99.90
12885;DHT22;6510;51.362;7.370;2023-07-28T13:23:57;25.00;99.90
12885;DHT22;6510;51.362;7.370;2023-07-28T13:26:22;24.60;99.90
12885;DHT22;6510;51.362;7.370;2023-07-28T13:28:48;24.50;99.90
12885;DHT22;6510;51.362;7.370;2023-07-28T13:31:17;24.20;99.90
12885;DHT22;6510;51.362;7.370;2023-07-28T13:33:44;24.50;99.90
12885;DHT22;6510;51.362;7.370;2023-07-28T13:36:10;26.10;99.90
12885;DHT22;6510;51.362;7.370;2023-07-28T13:38:35;27.60;99.90
12885;DHT22;6510;51.362;7.370;2023-07-28T13:41:04;26.60;99.90
12885;DHT22;6510;51.362;7.370;2023-07-28T13:43:30;25.50;99.90
12885;DHT22;6510;51.362;7.370;2023-07-28T13:45:56;24.90;99.90
12885;DHT22;6510;51.362;7.370;2023-07-28T13:48:22;24.30;99.90
12885;DHT22;6510;51.362;7.370;2023-07-28T13:50:47;23.90;99.90
12885;DHT22;6510;51.362;7.370;2023-07-28T13:53:13;23.30;99.90
12885;DHT22;6510;51.362;7.370;2023-07-28T13:55:38;23.00;99.90
12885;DHT22;6510;51.362;7.370;2023-07-28T13:58:04;22.70;99.90
12885;DHT22;6510;51.362;7.370;2023-07-28T14:00:32;22.70;99.90
12885;DHT22;6510;51.362;7.370;2023-07-28T14:02:58;22.60;99.90
12885;DHT22;6510;51.362;7.370;2023-07-28T14:05:23;22.70;99.90
12885;DHT22;6510;51.362;7.370;2023-07-28T14:07:49;22.50;99.90
12885;DHT22;6510;51.362;7.370;2023-07-28T14:10:14;22.30;99.90
12885;DHT22;6510;51.362;7.370;2023-07-28T14:12:40;22.40;99.90
12885;DHT22;6510;51.362;7.370;2023-07-28T14:15:07;22.50;99.90
12885;DHT22;6510;51.362;7.370;2023-07-28T14:17:33;22.60;99.90
12885;DHT22;6510;51.362;7.370;2023-07-28T14:19:59;22.50;99.90
12885;DHT22;6510;51.362;7.370;2023-07-28T14:22:24;22.30;99.90
12885;DHT22;6510;51.362;7.370;2023-07-28T14:24:50;21.90;99.90
12885;DHT22;6510;51.362;7.370;2023-07-28T14:27:16;21.80;99.90
12885;DHT22;6510;51.362;7.370;2023-07-28T14:29:41;21.90;99.90
12885;DHT22;6510;51.362;7.370;2023-07-28T14:32:07;21.80;99.90
12885;DHT22;6510;51.362;7.370;2023-07-28T14:34:33;21.40;99.90
12885;DHT22;6510;51.362;7.370;2023-07-28T14:37:03;21.00;99.90
12885;DHT22;6510;51.362;7.370;2023-07-28T14:39:30;20.50;99.90
12885;DHT22;6510;51.362;7.370;2023-07-28T14:41:58;20.40;99.90
12885;DHT22;6510;51.362;7.370;2023-07-28T14:44:24;20.30;99.90
12885;DHT22;6510;51.362;7.370;2023-07-28T14:46:49;20.20;99.90
12885;DHT22;6510;51.362;7.370;2023-07-28T14:49:15;20.40;99.90
12885;DHT22;6510;51.362;7.370;2023-07-28T14:51:41;21.20;99.90
12885;DHT22;6510;51.362;7.370;2023-07-28T14:54:06;22.20;99.90
12885;DHT22;6510;51.362;7.370;2023-07-28T14:56:32;22.40;99.90
12885;DHT22;6510;51.362;7.370;2023-07-28T14:58:58;22.80;99.90
12885;DHT22;6510;51.362;7.370;2023-07-28T15:01:26;22.80;99.90
12885;DHT22;6510;51.362;7.370;2023-07-28T15:03:52;23.10;99.90
12885;DHT22;6510;51.362;7.370;2023-07-28T15:06:17;23.40;99.90
12885;DHT22;6510;51.362;7.370;2023-07-28T15:08:43;23.40;99.90
12885;DHT22;6510;51.362;7.370;2023-07-28T15:11:09;23.20;99.90
12885;DHT22;6510;51.362;7.370;2023-07-28T15:13:35;23.10;99.90
12885;DHT22;6510;51.362;7.370;2023-07-28T15:16:00;23.20;99.90
12885;DHT22;6510;51.362;7.370;2023-07-28T15:18:26;23.20;99.90
12885;DHT22;6510;51.362;7.370;2023-07-28T15:20:51;23.20;99.90
12885;DHT22;6510;51.362;7.370;2023-07-28T15:23:22;23.20;99.90
12885;DHT22;6510;51.362;7.370;2023-07-28T15:25:47;23.00;99.90
12885;DHT22;6510;51.362;7.370;2023-07-28T15:28:14;22.80;99.90
12885;DHT22;6510;51.362;7.370;2023-07-28T15:30:39;22.70;99.90
12885;DHT22;6510;51.362;7.370;2023-07-28T15:33:06;22.70;99.90
12885;DHT22;6510;51.362;7.370;2023-07-28T15:35:31;22.30;99.90
12885;DHT22;6510;51.362;7.370;2023-07-28T15:37:57;22.30;99.90
12885;DHT22;6510;51.362;7.370;2023-07-28T15:40:22;22.10;99.90
12885;DHT22;6510;51.362;7.370;2023-07-28T15:42:48;22.00;99.90
12885;DHT22;6510;51.362;7.370;2023-07-28T15:45:14;21.80;99.90
12885;DHT22;6510;51.362;7.370;2023-07-28T15:47:39;21.80;99.90
12885;DHT22;6510;51.362;7.370;2023-07-28T15:50:05;21.70;99.90